Time;durP1;ratioP1;P1;durP2;ratioP2;P2;SDS_P1;SDS_P2;PMS_P1;PMS_P2;Temp;Humidity;BMP_temperature;BMP_pressure;BME280_temperature;BME280_humidity;BME280_pressure;Samples;Min_cycle;Max_cycle;Signal;HPM_P1;HPM_P2
2022/05/09 00:00:33;;;;;;;16.48;8.18;;;;;;;30.61;67.16;100760.78;5017715;28;69247;-41
2022/05/09 00:03:03;;;;;;;21.65;11.07;;;;;;;30.56;68.62;100760.63;5030769;28;64765;-43
2022/05/09 00:05:34;;;;;;;17.80;9.30;;;;;;;30.51;67.40;100755.06;5033069;28;70029;-42
2022/05/09 00:08:04;;;;;;;12.05;9.48;;;;;;;30.60;67.85;100777.28;5035414;28;66556;-42
2022/05/09 00:10:35;;;;;;;14.68;7.50;;;;;;;30.60;67.72;100772.69;5039437;28;69347;-41
2022/05/09 00:13:05;;;;;;;9.10;8.15;;;;;;;30.64;68.11;100778.47;5040296;28;65757;-43
2022/05/09 00:15:35;;;;;;;11.50;8.13;;;;;;;30.72;67.95;100776.31;5038813;28;70177;-43
2022/05/09 00:18:06;;;;;;;12.10;7.20;;;;;;;30.78;67.46;100784.59;5034174;28;65804;-42
2022/05/09 00:20:36;;;;;;;11.20;7.13;;;;;;;30.76;67.63;100773.16;5041579;28;70186;-43
2022/05/09 00:23:06;;;;;;;7.93;6.28;;;;;;;30.87;67.27;100788.72;5037349;28;66830;-44
2022/05/09 00:25:36;;;;;;;12.23;6.10;;;;;;;30.90;67.48;100783.69;5040896;28;70203;-44
2022/05/09 00:28:07;;;;;;;6.65;5.80;;;;;;;30.92;66.99;100778.03;5040719;28;66338;-43
2022/05/09 00:30:38;;;;;;;14.32;5.72;;;;;;;30.95;66.88;100796.53;5039362;28;70743;-43
2022/05/09 00:33:08;;;;;;;6.05;5.22;;;;;;;30.94;64.92;100774.06;5024001;28;66070;-41
2022/05/09 00:35:41;;;;;;;4.95;4.45;;;;;;;31.16;62.90;100793.44;5041232;28;69558;-42
2022/05/09 00:38:12;;;;;;;4.35;3.90;;;;;;;31.26;62.78;100792.91;5037710;28;67151;-41
2022/05/09 00:43:37;;;;;;;5.10;3.38;;;;;;;30.84;62.42;100719.59;5034226;28;66653;-41
2022/05/09 00:46:08;;;;;;;3.10;2.83;;;;;;;31.42;61.89;100801.53;5019927;28;70071;-40
2022/05/09 00:48:39;;;;;;;3.55;3.15;;;;;;;31.38;61.94;100795.75;5020951;28;66384;-42
2022/05/09 00:51:12;;;;;;;3.53;3.10;;;;;;;31.12;61.73;100738.03;5019751;28;70780;-41
2022/05/09 00:53:43;;;;;;;2.83;2.63;;;;;;;31.56;61.30;100809.25;5021217;28;65687;-42
2022/05/09 00:56:42;;;;;;;2.90;2.60;;;;;;;30.97;62.04;100718.59;5019926;28;70134;-41
2022/05/09 00:59:15;;;;;;;2.70;2.50;;;;;;;31.67;60.48;100804.16;5020301;28;65437;-42
2022/05/09 01:01:48;;;;;;;2.33;2.13;;;;;;;31.26;60.67;100732.44;5019710;28;70892;-42
2022/05/09 01:04:26;;;;;;;2.47;2.28;;;;;;;31.73;60.55;100819.50;5020967;28;66331;-40
2022/05/09 01:06:57;;;;;;;5.30;2.30;;;;;;;31.71;60.40;100802.66;5017774;28;69252;-41
2022/05/09 01:09:27;;;;;;;3.22;1.67;;;;;;;31.73;59.82;100809.50;5020901;28;65285;-41
2022/05/09 01:11:57;;;;;;;3.40;1.73;;;;;;;31.78;59.87;100809.63;5020505;28;70319;-41
2022/05/09 01:14:30;;;;;;;2.88;1.88;;;;;;;31.43;60.15;100749.81;5019744;28;66286;-41
2022/05/09 01:17:03;;;;;;;1.65;1.35;;;;;;;31.85;59.81;100822.31;5019984;28;70108;-41
2022/05/09 01:19:39;;;;;;;3.40;1.60;;;;;;;31.83;60.14;100806.25;5027384;28;66546;-41
2022/05/09 01:22:22;;;;;;;1.88;1.20;;;;;;;31.81;59.69;100817.31;5030189;28;70677;-41
2022/05/09 01:24:55;;;;;;;1.25;1.10;;;;;;;31.40;59.29;100744.84;5039438;28;65557;-41
2022/05/09 01:27:25;;;;;;;1.77;1.20;;;;;;;31.89;59.17;100824.31;5039037;28;69135;-41
2022/05/09 01:30:08;;;;;;;1.05;1.02;;;;;;;31.67;59.20;100785.16;5040020;28;65979;-41
2022/05/09 01:32:46;;;;;;;2.53;1.00;;;;;;;31.45;59.00;100744.97;5039450;28;70245;-40
2022/05/09 01:35:32;;;;;;;2.05;0.90;;;;;;;31.91;59.31;100822.22;5039364;28;66454;-41
2022/05/09 01:38:17;;;;;;;1.23;1.00;;;;;;;31.60;58.64;100756.25;5038953;28;69760;-41
2022/05/09 01:40:47;;;;;;;1.05;0.95;;;;;;;31.87;58.47;100802.00;5040522;28;65445;-41
2022/05/09 01:43:37;;;;;;;1.40;1.10;;;;;;;31.53;58.99;100760.94;5039130;28;70884;-41
2022/05/09 01:46:16;;;;;;;2.45;0.88;;;;;;;31.87;58.54;100807.44;5027087;28;65509;-41
2022/05/09 01:51:37;;;;;;;6.85;0.75;;;;;;;32.14;58.21;100842.38;5019418;28;66066;-42
2022/05/09 01:54:08;;;;;;;;;;;;;;;31.80;59.26;100841.97;5019583;28;70034;-41
2022/05/09 01:56:40;;;;;;;1.10;0.70;;;;;;;31.64;58.18;100758.50;5050954;28;65695;-42
2022/05/09 01:59:12;;;;;;;1.40;0.60;;;;;;;31.75;57.85;100768.59;5018970;28;70265;-41
2022/05/09 02:01:49;;;;;;;1.20;0.73;;;;;;;32.20;57.81;100841.44;5018458;28;66325;-41
2022/05/09 02:04:23;;;;;;;0.88;0.60;;;;;;;32.10;57.84;100828.47;5019755;28;69529;-41
2022/05/09 02:06:55;;;;;;;0.70;0.70;;;;;;;32.15;57.69;100822.31;5016899;28;65922;-42
2022/05/09 02:09:25;;;;;;;0.95;0.60;;;;;;;31.97;57.41;100788.75;5019823;28;70873;-42
2022/05/09 02:11:55;;;;;;;0.65;0.57;;;;;;;32.27;57.39;100842.19;5020203;28;65715;-40
2022/05/09 02:14:25;;;;;;;1.52;0.55;;;;;;;32.29;57.50;100829.22;5017689;28;69953;-42
2022/05/09 02:16:56;;;;;;;0.90;0.60;;;;;;;32.30;57.68;100830.88;5019666;28;66670;-42
2022/05/09 02:19:26;;;;;;;2.35;0.70;;;;;;;32.27;57.27;100815.06;5019162;28;69883;-42
2022/05/09 02:21:56;;;;;;;1.10;0.80;;;;;;;32.39;57.17;100831.38;5018647;28;65951;-41
2022/05/09 02:24:30;;;;;;;0.90;0.50;;;;;;;32.42;57.01;100828.19;5034829;28;69969;-41
2022/05/09 02:27:00;;;;;;;1.10;0.70;;;;;;;32.39;56.89;100824.06;5040118;28;65887;-41
2022/05/09 02:29:31;;;;;;;1.20;0.60;;;;;;;32.42;57.36;100820.88;5039091;28;69806;-42
2022/05/09 02:32:02;;;;;;;3.00;0.50;;;;;;;32.46;56.88;100834.88;5039972;28;66589;-41
2022/05/09 02:34:33;;;;;;;0.63;0.50;;;;;;;32.47;56.69;100823.75;5038152;28;70021;-41
2022/05/09 02:37:04;;;;;;;1.13;0.47;;;;;;;32.51;56.70;100826.00;5037496;28;66269;-41
2022/05/09 02:39:35;;;;;;;2.58;0.40;;;;;;;32.50;56.46;100825.19;5039169;28;69746;-42
2022/05/09 02:42:05;;;;;;;1.27;0.40;;;;;;;32.40;56.76;100803.16;5039012;28;67735;-42
2022/05/09 02:44:37;;;;;;;0.65;0.50;;;;;;;32.59;56.49;100833.81;5039669;28;70252;-42
2022/05/09 02:47:08;;;;;;;0.68;0.45;;;;;;;32.59;56.55;100834.63;5039126;28;66473;-41
2022/05/09 02:49:40;;;;;;;0.60;0.60;;;;;;;32.65;56.72;100833.72;5038045;28;70122;-41
2022/05/09 02:52:11;;;;;;;0.88;0.60;;;;;;;32.69;56.27;100839.50;5039771;28;66262;-40
2022/05/09 02:54:41;;;;;;;1.17;0.60;;;;;;;32.69;56.33;100831.34;5039486;28;70271;-41
2022/05/09 02:57:13;;;;;;;2.25;0.80;;;;;;;32.70;56.19;100830.28;5038031;28;66376;-42
2022/05/09 02:59:44;;;;;;;0.82;0.57;;;;;;;32.63;56.23;100808.69;5038439;28;69771;-42
2022/05/09 03:02:14;;;;;;;1.23;0.60;;;;;;;32.77;56.09;100814.72;5038531;28;66512;-41
2022/05/09 03:04:45;;;;;;;1.73;0.70;;;;;;;32.79;55.96;100818.03;5040324;28;70797;-41
2022/05/09 03:07:17;;;;;;;0.95;0.70;;;;;;;32.33;56.10;100719.13;5043062;28;65439;-42
2022/05/09 03:09:49;;;;;;;1.10;0.70;;;;;;;32.53;55.83;100759.53;5043037;28;70146;-42
2022/05/09 03:12:19;;;;;;;0.95;0.47;;;;;;;32.84;56.28;100799.13;5042460;28;65604;-41
2022/05/09 03:14:50;;;;;;;0.73;0.60;;;;;;;32.80;56.11;100787.09;5041477;28;69158;-41
2022/05/09 03:17:21;;;;;;;0.75;0.60;;;;;;;32.86;55.92;100785.31;5040353;28;66452;-41
2022/05/09 03:19:51;;;;;;;1.65;0.63;;;;;;;32.64;55.96;100744.31;5042280;28;70438;-40
2022/05/09 03:22:27;;;;;;;0.88;0.50;;;;;;;32.97;56.01;100791.81;5042434;28;65417;-41
2022/05/09 03:24:57;;;;;;;1.23;0.70;;;;;;;32.98;56.01;100790.72;5039512;28;69590;-41
2022/05/09 03:27:27;;;;;;;0.90;0.50;;;;;;;32.99;55.75;100795.09;5042660;28;66478;-41
2022/05/09 03:29:58;;;;;;;1.42;0.50;;;;;;;32.90;55.92;100775.59;5023838;28;69938;-40
2022/05/09 03:32:28;;;;;;;1.02;0.52;;;;;;;32.99;55.60;100789.66;5041744;28;65436;-43
2022/05/09 03:34:58;;;;;;;1.10;0.60;;;;;;;33.01;55.83;100787.56;5057717;28;70202;-42
2022/05/09 03:37:30;;;;;;;1.13;0.60;;;;;;;33.07;55.77;100792.06;5042016;28;65392;-42
2022/05/09 03:40:00;;;;;;;0.93;0.60;;;;;;;33.01;55.83;100771.25;5039541;28;70261;-41
2022/05/09 03:42:32;;;;;;;1.03;0.60;;;;;;;33.06;55.81;100790.41;5042712;28;66738;-42
2022/05/09 03:45:02;;;;;;;1.17;0.50;;;;;;;33.06;55.72;100771.38;5040772;28;69038;-41
2022/05/09 03:47:33;;;;;;;0.85;0.50;;;;;;;33.11;55.70;100772.31;5039289;28;65308;-41
2022/05/09 03:50:04;;;;;;;3.33;0.40;;;;;;;33.15;55.61;100770.78;5040860;28;70226;-42
2022/05/09 03:52:35;;;;;;;0.95;0.40;;;;;;;33.16;55.71;100774.34;5041307;28;65716;-41
2022/05/09 03:55:07;;;;;;;0.52;0.38;;;;;;;33.19;55.44;100767.59;5040834;28;69907;-46
2022/05/09 03:57:54;;;;;;;0.80;0.40;;;;;;;32.61;55.57;100685.06;5041617;28;65504;-42
2022/05/09 04:00:28;;;;;;;1.40;0.60;;;;;;;33.13;55.55;100747.63;5040268;28;70192;-42
2022/05/09 04:02:59;;;;;;;1.23;0.50;;;;;;;33.23;55.57;100760.59;5041400;28;66048;-41
2022/05/09 04:05:31;;;;;;;0.75;0.50;;;;;;;33.24;55.48;100744.06;5041452;28;69192;-41
2022/05/09 04:08:05;;;;;;;0.60;0.40;;;;;;;33.27;55.44;100757.19;5022045;28;66653;-41
2022/05/09 04:10:37;;;;;;;0.40;0.32;;;;;;;33.23;55.34;100736.97;5040067;28;70233;-41
2022/05/09 04:13:07;;;;;;;0.98;0.45;;;;;;;33.25;55.55;100742.19;5038679;28;66565;-41
2022/05/09 04:18:37;;;;;;;1.10;0.57;;;;;;;33.07;55.20;100694.22;5040511;28;66691;-43
2022/05/09 04:21:09;;;;;;;1.40;0.60;;;;;;;32.99;55.49;100684.53;5040574;28;70424;-40
2022/05/09 04:23:40;;;;;;;0.50;0.40;;;;;;;33.18;55.19;100696.06;5040827;28;65247;-41
2022/05/09 04:26:12;;;;;;;0.50;0.38;;;;;;;33.36;55.24;100725.81;5056851;28;69872;-42
2022/05/09 04:28:42;;;;;;;0.75;0.70;;;;;;;33.40;55.39;100725.34;5041063;28;65321;-42
2022/05/09 04:31:13;;;;;;;1.05;0.40;;;;;;;33.36;55.16;100705.97;5039214;28;70090;-42
2022/05/09 04:33:43;;;;;;;0.60;0.40;;;;;;;33.39;55.25;100708.19;5041296;28;66501;-42
2022/05/09 04:36:15;;;;;;;1.08;0.43;;;;;;;33.45;55.26;100712.66;5040834;28;70011;-42
2022/05/09 04:38:49;;;;;;;0.63;0.50;;;;;;;33.46;55.25;100708.06;5039808;28;66196;-41
2022/05/09 04:41:21;;;;;;;2.28;0.40;;;;;;;33.50;55.36;100703.78;5040715;28;70582;-42
2022/05/09 04:43:52;;;;;;;1.65;0.50;;;;;;;33.51;55.11;100719.84;5041651;28;66702;-41
2022/05/09 04:46:22;;;;;;;0.68;0.45;;;;;;;33.54;55.03;100707.69;5040203;28;70360;-41
2022/05/09 04:48:52;;;;;;;0.80;0.55;;;;;;;33.50;54.64;100703.78;5041796;28;66526;-42
2022/05/09 04:51:22;;;;;;;1.52;0.57;;;;;;;33.51;55.03;100691.84;5040498;28;70055;-41
2022/05/09 04:53:52;;;;;;;1.00;0.50;;;;;;;33.51;55.04;100679.06;5039190;28;66547;-42
2022/05/09 04:56:22;;;;;;;0.93;0.50;;;;;;;33.30;55.06;100639.81;5040974;28;70141;-42
2022/05/09 04:58:52;;;;;;;1.83;0.50;;;;;;;33.59;54.89;100686.03;5039917;28;66638;-41
2022/05/09 05:01:23;;;;;;;0.85;0.60;;;;;;;33.61;54.78;100688.53;5040145;28;70509;-42
2022/05/09 05:03:53;;;;;;;4.35;0.50;;;;;;;33.58;55.24;100668.09;5040503;28;66259;-42
2022/05/09 05:06:23;;;;;;;3.40;0.50;;;;;;;33.68;54.74;100683.75;5040918;28;70411;-41
2022/05/09 05:08:53;;;;;;;0.85;0.52;;;;;;;33.72;54.79;100691.19;5039741;28;65782;-42
2022/05/09 05:11:23;;;;;;;0.85;0.57;;;;;;;33.74;54.76;100689.06;5040872;28;70133;-42
2022/05/09 05:13:53;;;;;;;1.42;0.60;;;;;;;33.77;54.72;100679.59;5039843;28;66059;-41
2022/05/09 05:16:59;;;;;;;0.73;0.50;;;;;;;33.76;54.67;100670.56;5040262;28;70721;-41
2022/05/09 05:19:16;;;;;;;0.63;0.40;;;;;;;33.80;54.65;100666.31;5038982;28;66899;-42
2022/05/09 05:21:46;;;;;;;0.50;0.50;;;;;;;33.82;54.63;100663.31;5040051;28;71030;-44
2022/05/09 05:24:20;;;;;;;0.82;0.50;;;;;;;33.85;54.34;100657.41;5017547;28;65000;-40
2022/05/09 05:26:52;;;;;;;0.75;0.40;;;;;;;33.86;54.69;100652.78;5039050;28;70366;-41
2022/05/09 05:29:23;;;;;;;0.52;0.40;;;;;;;33.55;54.44;100600.59;5022476;28;66048;-41
2022/05/09 05:31:54;;;;;;;4.65;0.50;;;;;;;33.91;54.43;100661.06;5040278;28;69575;-41
2022/05/09 05:34:25;;;;;;;1.42;0.40;;;;;;;33.93;54.49;100653.44;5039261;28;65583;-42
2022/05/09 05:36:55;;;;;;;0.73;0.52;;;;;;;33.88;54.47;100639.75;5040781;28;70119;-42
2022/05/09 05:39:25;;;;;;;1.15;0.40;;;;;;;33.99;54.30;100649.72;5040793;28;66151;-42
2022/05/09 05:41:55;;;;;;;0.50;0.50;;;;;;;33.99;54.06;100633.41;5039724;28;69205;-41
2022/05/09 05:44:25;;;;;;;0.70;0.40;;;;;;;34.03;54.14;100627.22;5041085;28;66119;-42
2022/05/09 05:46:55;;;;;;;0.68;0.38;;;;;;;34.08;54.29;100634.69;5039251;28;69903;-40
2022/05/09 05:49:28;;;;;;;1.33;0.45;;;;;;;34.06;54.61;100616.94;5039374;28;65597;-42
2022/05/09 05:52:02;;;;;;;0.57;0.40;;;;;;;34.08;53.98;100621.06;5040527;28;70042;-40
2022/05/09 05:54:39;;;;;;;0.70;0.50;;;;;;;34.16;53.62;100626.09;5040896;28;65937;-40
2022/05/09 05:57:27;;;;;;;0.47;0.35;;;;;;;33.74;54.02;100569.38;5037615;28;70046;-42
2022/05/09 06:00:05;;;;;;;0.63;0.50;;;;;;;34.20;53.65;100627.25;5039772;28;66386;-40
2022/05/09 06:02:44;;;;;;;0.60;0.30;;;;;;;34.22;53.77;100619.66;5040374;28;70124;-41
2022/05/09 06:05:16;;;;;;;2.38;0.40;;;;;;;34.20;53.92;100607.38;5038863;28;66174;-42
2022/05/09 06:07:51;;;;;;;0.43;0.30;;;;;;;34.23;53.98;100604.97;5038544;28;70593;-41
2022/05/09 06:10:23;;;;;;;0.75;0.40;;;;;;;34.28;54.13;100595.22;5040763;28;66362;-41
2022/05/09 06:12:53;;;;;;;1.93;0.47;;;;;;;34.27;54.27;100588.97;5038903;28;69407;-40
2022/05/09 06:15:28;;;;;;;0.50;0.32;;;;;;;34.34;53.59;100586.88;5040432;28;65725;-41
2022/05/09 06:18:04;;;;;;;1.17;0.50;;;;;;;33.89;53.45;100505.38;5036957;28;69875;-41
2022/05/09 06:20:37;;;;;;;2.20;0.50;;;;;;;34.39;53.83;100564.34;5037912;28;66020;-41
2022/05/09 06:23:09;;;;;;;0.95;0.50;;;;;;;34.43;53.73;100576.38;5040258;28;70387;-40
2022/05/09 06:25:40;;;;;;;1.00;0.60;;;;;;;34.31;54.01;100538.38;5039953;28;66397;-42
2022/05/09 06:28:11;;;;;;;1.33;0.40;;;;;;;34.50;53.62;100559.88;5038819;28;69633;-41
2022/05/09 06:30:42;;;;;;;1.42;0.68;;;;;;;34.53;53.41;100554.72;5039975;28;66416;-41
2022/05/09 06:33:13;;;;;;;0.55;0.40;;;;;;;34.57;53.46;100555.88;5038958;28;70027;-41
2022/05/09 06:35:44;;;;;;;1.48;0.50;;;;;;;33.75;53.43;100412.41;5040202;28;65525;-41
2022/05/09 06:38:16;;;;;;;1.17;0.40;;;;;;;34.62;53.68;100555.94;5024049;28;69846;-41
2022/05/09 06:40:47;;;;;;;1.83;0.40;;;;;;;34.60;53.21;100538.22;5042554;28;65723;-42
2022/05/09 06:43:17;;;;;;;2.33;0.55;;;;;;;34.68;53.20;100554.09;5044303;28;69576;-41
2022/05/09 06:45:50;;;;;;;0.77;0.32;;;;;;;34.63;53.48;100544.00;5043256;28;66420;-40
2022/05/09 06:48:21;;;;;;;0.68;0.47;;;;;;;34.70;53.58;100538.34;5042132;28;71611;-41
2022/05/09 06:50:52;;;;;;;0.60;0.40;;;;;;;34.79;53.50;100542.25;5041808;28;66110;-42
2022/05/09 06:53:22;;;;;;;1.10;0.50;;;;;;;34.84;53.43;100549.66;5043320;28;69652;-42
2022/05/09 06:55:58;;;;;;;0.40;0.30;;;;;;;34.85;52.77;100529.50;5042773;28;66701;-41
2022/05/09 06:58:29;;;;;;;0.73;0.30;;;;;;;34.79;53.40;100512.28;5041259;28;69959;-42
2022/05/09 07:00:59;;;;;;;1.02;0.40;;;;;;;34.94;53.13;100525.25;5041504;28;66407;-40
2022/05/09 07:03:30;;;;;;;2.33;0.30;;;;;;;34.97;52.59;100516.56;5042850;28;70445;-41
2022/05/09 07:06:00;;;;;;;0.93;0.40;;;;;;;35.07;53.19;100513.97;5042808;28;65745;-41
2022/05/09 07:08:32;;;;;;;0.88;0.32;;;;;;;35.12;52.81;100507.75;5041350;28;71038;-41
2022/05/09 07:11:04;;;;;;;4.97;0.47;;;;;;;35.11;53.07;100512.38;5042896;28;65607;-42
2022/05/09 07:13:51;;;;;;;0.80;0.40;;;;;;;35.16;52.83;100514.34;5039947;28;70324;-41
2022/05/09 07:16:21;;;;;;;1.10;0.50;;;;;;;35.12;52.69;100508.56;5042899;28;66395;-40
2022/05/09 07:18:56;;;;;;;0.70;0.40;;;;;;;35.24;52.39;100521.22;5042352;28;69358;-41
2022/05/09 07:21:27;;;;;;;2.33;0.50;;;;;;;35.27;52.65;100507.06;5041331;28;66252;-41
2022/05/09 07:23:58;;;;;;;0.40;0.30;;;;;;;35.27;52.54;100524.25;5042524;28;69924;-41
2022/05/09 07:26:28;;;;;;;0.30;0.30;;;;;;;35.21;52.64;100502.63;5042690;28;66141;-41
2022/05/09 07:28:59;;;;;;;0.90;0.40;;;;;;;35.25;52.67;100507.31;5041191;28;70762;-42
2022/05/09 07:31:29;;;;;;;3.70;0.38;;;;;;;35.24;52.27;100493.94;5042790;28;65475;-41
2022/05/09 07:34:00;;;;;;;0.60;0.50;;;;;;;35.36;52.08;100513.69;5041046;28;69988;-41
2022/05/09 07:36:31;;;;;;;0.85;0.43;;;;;;;35.37;52.39;100520.78;5041740;28;65997;-41
2022/05/09 07:39:03;;;;;;;0.98;0.45;;;;;;;35.41;52.00;100515.63;5041850;28;70575;-39
2022/05/09 07:41:34;;;;;;;0.60;0.40;;;;;;;35.43;52.35;100506.09;5040822;28;67110;-42
2022/05/09 07:44:04;;;;;;;0.73;0.30;;;;;;;35.43;52.46;100492.47;5042023;28;69567;-42
2022/05/09 07:46:35;;;;;;;1.23;0.32;;;;;;;35.47;51.94;100499.06;5042536;28;66624;-42
2022/05/09 07:49:13;;;;;;;0.98;0.50;;;;;;;35.48;52.26;100494.41;5039740;28;70249;-41
2022/05/09 07:51:43;;;;;;;0.85;0.40;;;;;;;35.50;51.89;100490.34;5042452;28;66145;-41
2022/05/09 07:54:14;;;;;;;1.30;0.30;;;;;;;35.51;52.25;100488.44;5024202;28;69171;-42
2022/05/09 07:56:44;;;;;;;0.70;0.40;;;;;;;35.50;52.30;100482.16;5039577;28;65597;-42
2022/05/09 07:59:14;;;;;;;0.30;0.30;;;;;;;35.53;51.90;100480.81;5036385;28;70224;-41
2022/05/09 08:01:44;;;;;;;0.43;0.30;;;;;;;35.54;52.08;100475.09;5024111;28;66375;-41
2022/05/09 08:04:14;;;;;;;0.93;0.32;;;;;;;35.54;51.54;100479.72;5019837;28;69182;-41
2022/05/09 08:06:45;;;;;;;2.80;0.40;;;;;;;35.53;51.43;100478.91;5053897;28;66088;-41
2022/05/09 08:09:16;;;;;;;1.02;0.50;;;;;;;35.56;51.43;100491.25;5022048;28;69622;-42
2022/05/09 08:11:46;;;;;;;0.57;0.40;;;;;;;35.58;51.28;100483.63;5021005;28;66497;-41
2022/05/09 08:14:16;;;;;;;0.47;0.30;;;;;;;35.50;51.51;100471.25;5021731;28;70171;-41
2022/05/09 08:16:47;;;;;;;0.75;0.40;;;;;;;35.48;51.50;100467.16;5021795;28;65607;-41
2022/05/09 08:19:18;;;;;;;1.52;0.28;;;;;;;35.57;51.94;100480.03;5020564;28;70047;-40
2022/05/09 08:21:50;;;;;;;3.42;0.70;;;;;;;35.56;51.52;100475.69;5021094;28;65015;-42
2022/05/09 08:24:28;;;;;;;0.90;0.50;;;;;;;35.58;51.58;100468.06;5035908;28;69965;-41
2022/05/09 08:26:59;;;;;;;1.80;0.32;;;;;;;35.58;51.51;100468.06;5041731;28;65556;-41
2022/05/09 08:29:29;;;;;;;0.25;0.25;;;;;;;35.56;51.76;100463.97;5040186;28;69996;-42
2022/05/09 08:31:59;;;;;;;0.47;0.30;;;;;;;35.57;51.85;100471.88;5039843;28;65695;-42
2022/05/09 08:34:30;;;;;;;1.17;0.30;;;;;;;35.55;51.65;100468.56;5041185;28;69482;-40
2022/05/09 08:37:00;;;;;;;0.75;0.40;;;;;;;35.55;52.12;100457.66;5041265;28;66330;-41
2022/05/09 08:39:32;;;;;;;0.43;0.35;;;;;;;35.54;52.23;100453.25;5039475;28;70190;-41
2022/05/09 08:42:08;;;;;;;1.05;0.32;;;;;;;35.10;51.62;100390.81;5041473;28;65461;-41
2022/05/09 08:44:54;;;;;;;0.55;0.40;;;;;;;35.47;52.01;100452.69;5040983;28;70638;-40
2022/05/09 08:47:34;;;;;;;0.22;0.22;;;;;;;35.57;52.27;100454.69;5041697;28;65501;-42
2022/05/09 08:50:33;;;;;;;2.50;0.60;;;;;;;35.47;51.71;100458.16;5040427;28;70341;-41
2022/05/09 08:53:16;;;;;;;1.17;0.30;;;;;;;34.70;52.27;100326.66;5040541;28;65650;-41
2022/05/09 08:55:48;;;;;;;0.85;0.40;;;;;;;35.55;51.92;100462.25;5038702;28;70212;-41
2022/05/09 08:58:42;;;;;;;1.98;0.40;;;;;;;35.36;51.97;100454.50;5041242;28;65414;-41
2022/05/09 09:01:27;;;;;;;0.63;0.40;;;;;;;35.21;52.09;100409.94;5038685;28;70240;-42
2022/05/09 09:04:06;;;;;;;0.77;0.50;;;;;;;35.03;52.41;100390.16;5039471;28;65298;-41
2022/05/09 09:06:54;;;;;;;1.38;0.45;;;;;;;35.54;52.43;100471.53;5041767;28;69537;-41
2022/05/09 09:09:33;;;;;;;0.70;0.38;;;;;;;35.53;52.41;100470.72;5039354;28;66265;-40
2022/05/09 09:12:09;;;;;;;0.70;0.40;;;;;;;35.54;52.54;100472.34;5040800;28;70398;-42
2022/05/09 09:15:01;;;;;;;1.52;0.40;;;;;;;35.43;52.60;100478.81;5041061;28;66687;-40
2022/05/09 09:18:10;;;;;;;1.52;0.60;;;;;;;35.35;52.45;100473.84;5039900;28;70461;-41
2022/05/09 09:21:01;;;;;;;8.20;0.68;;;;;;;35.26;53.08;100453.59;4978116;28;65424;-41
2022/05/09 09:23:37;;;;;;;2.63;1.10;;;;;;;35.49;52.24;100468.78;5028671;28;69965;-41
2022/05/09 09:26:34;;;;;;;1.05;0.75;;;;;;;35.35;52.40;100465.66;5030749;28;65707;-40
2022/05/09 09:29:07;;;;;;;2.30;0.85;;;;;;;35.49;52.62;100474.22;5038499;28;69711;-42
2022/05/09 09:31:52;;;;;;;2.67;1.00;;;;;;;35.06;52.87;100419.66;5040128;28;66207;-41
2022/05/09 09:34:27;;;;;;;1.95;0.90;;;;;;;35.06;52.82;100422.38;5040333;28;70460;-41
2022/05/09 09:37:16;;;;;;;1.30;0.80;;;;;;;35.39;52.41;100491.34;5040716;28;65940;-42
2022/05/09 09:39:47;;;;;;;2.10;0.95;;;;;;;35.37;53.05;100488.06;5039816;28;70217;-41
2022/05/09 09:42:17;;;;;;;0.95;0.75;;;;;;;35.39;53.12;100496.81;5040433;28;66079;-41
2022/05/09 09:44:49;;;;;;;1.58;0.90;;;;;;;35.43;52.57;100503.38;5038944;28;69743;-41
2022/05/09 09:47:24;;;;;;;1.08;0.80;;;;;;;35.45;53.10;100497.66;5039976;28;66309;-41
2022/05/09 09:50:29;;;;;;;1.38;0.57;;;;;;;34.95;53.20;100423.34;5039485;28;69105;-41
2022/05/09 09:53:00;;;;;;;1.92;0.80;;;;;;;35.43;52.85;100503.38;5037582;28;65811;-40
2022/05/09 09:55:38;;;;;;;1.00;0.60;;;;;;;35.13;53.01;100454.84;5039361;28;70585;-41
2022/05/09 09:58:23;;;;;;;1.33;0.82;;;;;;;34.59;53.11;100378.59;5040160;28;66365;-41
2022/05/09 10:01:33;;;;;;;1.15;0.50;;;;;;;35.30;53.39;100509.25;5038257;28;70384;-43
2022/05/09 10:04:17;;;;;;;1.13;0.47;;;;;;;35.20;53.10;100501.00;5024778;28;66049;-41
2022/05/09 10:07:02;;;;;;;1.23;0.60;;;;;;;35.33;53.26;100536.03;5030035;28;70090;-40
2022/05/09 10:09:42;;;;;;;1.02;0.50;;;;;;;35.34;53.67;100527.56;5030231;28;66629;-43
2022/05/09 10:12:26;;;;;;;1.63;0.60;;;;;;;35.27;53.47;100531.59;5031274;28;70484;-43
2022/05/09 10:14:58;;;;;;;1.05;0.60;;;;;;;35.22;53.46;100517.94;5029764;28;65965;-42
2022/05/09 10:17:31;;;;;;;2.53;0.52;;;;;;;35.20;53.28;100533.72;5023768;28;70260;-42
2022/05/09 10:20:28;;;;;;;0.57;0.50;;;;;;;35.22;53.35;100558.84;5037018;28;66042;-42
2022/05/09 10:26:24;;;;;;;1.10;0.60;;;;;;;35.19;53.94;100564.78;5021476;28;65259;-42
2022/05/09 10:29:04;;;;;;;1.02;0.52;;;;;;;34.77;54.03;100502.72;5021723;28;69963;-40
2022/05/09 10:31:54;;;;;;;0.90;0.60;;;;;;;35.04;53.99;100560.78;5022288;28;66507;-40
2022/05/09 10:34:51;;;;;;;1.25;0.55;;;;;;;35.13;53.94;100580.25;5013134;28;69859;-41
2022/05/09 10:37:24;;;;;;;0.82;0.40;;;;;;;35.20;53.83;100585.53;5042935;28;66940;-40
2022/05/09 10:40:25;;;;;;;2.40;1.50;;;;;;;34.80;55.70;100603.00;5032380;28;69585;-42
2022/05/09 10:43:12;;;;;;;14.13;2.93;;;;;;;34.63;56.75;100613.97;5029692;28;66243;-42
2022/05/09 10:45:50;;;;;;;8.85;3.28;;;;;;;34.38;57.19;100589.91;5035558;28;69483;-41
2022/05/09 10:48:59;;;;;;;4.90;2.72;;;;;;;33.86;57.42;100546.69;5032834;28;66417;-43
2022/05/09 10:51:36;;;;;;;5.80;3.25;;;;;;;33.88;57.90;100552.69;5040381;28;69438;-42
2022/05/09 10:54:26;;;;;;;9.23;4.05;;;;;;;33.98;57.94;100591.75;5025562;28;66208;-43
2022/05/09 10:57:25;;;;;;;8.07;4.47;;;;;;;34.06;58.43;100642.28;5023612;28;69077;-42
2022/05/09 11:00:19;;;;;;;24.40;3.42;;;;;;;34.10;58.31;100646.16;5028709;28;65902;-41
2022/05/09 11:03:03;;;;;;;24.08;3.53;;;;;;;33.99;58.53;100652.44;5026402;28;69871;-41
2022/05/09 11:06:00;;;;;;;7.28;3.25;;;;;;;34.00;58.75;100659.56;5022524;28;66051;-42
2022/05/09 11:08:58;;;;;;;8.68;3.33;;;;;;;33.62;59.15;100612.13;5023129;28;69361;-42
2022/05/09 11:12:16;;;;;;;11.93;3.55;;;;;;;33.89;59.34;100674.06;5012297;28;66744;-41
2022/05/09 11:14:49;;;;;;;7.20;3.70;;;;;;;34.08;58.87;100678.22;4963514;28;69332;-42
2022/05/09 11:17:37;;;;;;;14.98;3.40;;;;;;;34.20;58.03;100673.53;4979912;28;65407;-43
2022/05/09 11:20:23;;;;;;;7.93;2.90;;;;;;;34.25;58.31;100684.50;5009144;28;70487;-43
2022/05/09 11:23:20;;;;;;;8.27;3.17;;;;;;;34.38;58.05;100687.94;5051544;28;66461;-42
2022/05/09 11:25:57;;;;;;;5.38;2.97;;;;;;;34.38;57.34;100687.94;5033615;28;70277;-42
2022/05/09 11:28:55;;;;;;;12.20;2.83;;;;;;;34.38;57.64;100698.84;5031940;28;66179;-43
2022/05/09 11:31:44;;;;;;;9.43;3.30;;;;;;;33.84;58.15;100616.84;5037493;28;69775;-41
2022/05/09 11:34:25;;;;;;;14.48;4.95;;;;;;;34.38;57.99;100698.84;5040725;28;66833;-41
2022/05/09 11:37:02;;;;;;;;;;;;;;;34.08;58.75;100710.91;5030726;28;69605;-42
2022/05/09 11:39:39;;;;;;;8.13;3.28;;;;;;;34.37;57.90;100714.34;5038669;28;66573;-42
2022/05/09 11:45:58;;;;;;;9.20;3.90;;;;;;;33.84;60.75;100714.78;5021291;28;65857;-40
2022/05/09 11:48:45;;;;;;;10.68;4.90;;;;;;;33.95;60.25;100716.63;5041479;28;69941;-43
2022/05/09 11:51:39;;;;;;;15.32;4.72;;;;;;;33.18;61.65;100639.00;5042010;28;66775;-49
2022/05/09 11:54:16;;;;;;;18.75;4.18;;;;;;;33.07;62.33;100634.44;5035713;28;69241;-42
2022/05/09 11:56:50;;;;;;;9.10;3.40;;;;;;;32.98;60.74;100647.53;5041402;28;66440;-52
2022/05/09 11:59:25;;;;;;;14.20;3.42;;;;;;;32.81;59.66;100652.06;5038304;28;69310;-42
2022/05/09 12:02:07;;;;;;;11.50;2.70;;;;;;;32.51;58.64;100625.06;5017976;28;66052;-44
2022/05/09 12:04:40;;;;;;;6.55;3.08;;;;;;;32.86;57.87;100720.94;5023392;28;70271;-43
2022/05/09 12:07:28;;;;;;;6.63;2.50;;;;;;;32.68;57.07;100724.63;5025177;28;65703;-40
2022/05/09 12:10:03;;;;;;;11.70;2.50;;;;;;;32.61;56.82;100728.50;5028237;28;70186;-40
2022/05/09 12:12:43;;;;;;;7.70;2.30;;;;;;;32.51;55.81;100733.69;5034307;28;66245;-41
2022/05/09 12:15:17;;;;;;;6.28;1.80;;;;;;;32.43;55.67;100726.66;5028581;28;69954;-42
2022/05/09 12:18:07;;;;;;;4.63;1.70;;;;;;;32.35;55.04;100730.56;5028282;28;65945;-41